La Crescenta, California
Current Conditions -  °F | °C
As of 7:53 PM on Saturday 24 Jan 2015 (Local Time) from KBUR Reporting Station
Clear Clear  
Wind Chill: 64°   Ceiling: Unl
Heat Index: 64°   Visibility: 10mi
Dew Point: 24°   Wind: 0mph
Humidity: 22%   Direction: NA
Pressure: 30.03"   Gusts: NA
Location:  34.22°N, 118.24°W
Report Text: KBUR 250353Z 00000KT 10SM CLR 18/M04 A3003 RMK AO2 SLP157 T01781044 $
Loading
Personal Weather Stations






























Interactive Weather Map New forecast layout! Learn more

10-Day Weather Forecast

Advertisements
Track Severe Weather on mobile